Strona główna
METAR-TAF:

METAR-TAF

Lotnisko :

Port lotniczy Kair

Kair, Egipt

Szerokość geograficzna: 30-08N, Długość geograficzna: 031-24E, wysokość: 64 m

Aktualna obserwacja pogody

Raport powstał 30 minut temu, godzina 11:00 UTC
Wiatr 7 kt od zachodnio-północny zachód
Temperatura 34°C
Wilgotność 36%
Ciśnienie 1008 hPa
Widzialność 10 km lub więcej
Rozproszone chmury na wysokości 2500 ft

METAR: HECA 181100Z 29007KT 9999 SCT025 34/17 Q1008 NOSIG

czas: 13:30 (11:30 UTC)

Prognoza

Raport powstał 6 godziny i 29 minut temu, godzina 05:01 UTC
Prognoza ważna od 18 godzina 06 UTC do 19 godzina 12 UTC
Wiatr 10 kt od północny zachód w porywach dochodzący do 20 kt
Widzialność 10 km lub więcej
Brak chmur poniżej 1500 m i brak chmur cumulonimbus
Prawdopodobieństwo 30% :
Przejściowo
od 18 godzina 08 UTC do 18 godzina 15 UTC
Widzialność: 4000 m
piasek

TAF: HECA 180501Z 1806/1912 31010G20KT CAVOK PROB30 TEMPO 1808/1815 4000 SA NSC

Obserwacja i prognoza pogody dla ponad 4000 lotnisk (raport METAR i TAF).

Dostępne stacje oznaczono żółtymi i czerwonymi punktami na mapie.

Najedź kursorem aby zobaczyć nazwę stacji.

Kliknij aby zobaczyć obserwacje i prognozy pogody.

Aby zmienić mapę: kliknij na zielony przycisk z czarnym krzyżykiem, aby powiększyć; na zielony przycisk z myślnikiem, aby pomniejszyć; na zielone strzałki, aby przejść do map sąsiednich.


METAR-TAF: